Time;durP1;ratioP1;P1;durP2;ratioP2;P2;SDS_P1;SDS_P2;PMS_P1;PMS_P2;Temp;Humidity;BMP_temperature;BMP_pressure;BME280_temperature;BME280_humidity;BME280_pressure;Samples;Min_cycle;Max_cycle;Signal;HPM_P1;HPM_P2
2023/12/05 00:01:47;;;;;;;33.50;24.00;;;23.60;99.90;;;;;;5071783;28;20036;-52
2023/12/05 00:04:12;;;;;;;34.07;24.00;;;23.60;99.90;;;;;;5065026;28;20104;-54
2023/12/05 00:06:38;;;;;;;33.40;24.60;;;23.60;99.90;;;;;;5066318;28;20076;-53
2023/12/05 00:09:03;;;;;;;35.93;24.57;;;23.60;99.90;;;;;;5060919;28;20036;-52
2023/12/05 00:11:29;;;;;;;36.87;25.47;;;23.60;99.90;;;;;;5067708;28;20029;-51
2023/12/05 00:13:55;;;;;;;36.03;26.43;;;23.60;99.90;;;;;;5069484;28;20440;-54
2023/12/05 00:16:20;;;;;;;34.57;24.43;;;23.60;99.90;;;;;;5065737;28;20032;-55
2023/12/05 00:18:49;;;;;;;33.13;23.93;;;23.70;99.90;;;;;;5066838;28;20032;-52
2023/12/05 00:21:18;;;;;;;34.83;24.80;;;23.60;99.90;;;;;;5063627;28;20443;-54
2023/12/05 00:23:43;;;;;;;34.73;23.97;;;23.60;99.90;;;;;;5070423;28;20108;-51
2023/12/05 00:26:09;;;;;;;33.90;25.40;;;23.60;99.90;;;;;;5063143;28;20190;-55
2023/12/05 00:28:35;;;;;;;37.17;26.00;;;23.50;99.90;;;;;;5063378;28;20506;-55
2023/12/05 00:31:00;;;;;;;36.83;25.67;;;23.60;99.90;;;;;;5066879;28;20040;-58
2023/12/05 00:33:26;;;;;;;35.40;26.13;;;23.50;99.90;;;;;;5069389;28;20509;-51
2023/12/05 00:35:52;;;;;;;38.47;25.80;;;23.60;99.90;;;;;;5064760;28;20058;-53
2023/12/05 00:38:17;;;;;;;33.83;25.57;;;23.60;99.90;;;;;;5066975;28;20382;-51
2023/12/05 00:40:43;;;;;;;36.23;25.53;;;23.50;99.90;;;;;;5065631;28;20687;-51
2023/12/05 00:43:09;;;;;;;36.03;26.33;;;23.50;99.90;;;;;;5064077;28;20166;-51
2023/12/05 00:45:34;;;;;;;37.67;25.97;;;23.60;99.90;;;;;;5060990;28;20028;-52
2023/12/05 00:48:00;;;;;;;37.33;25.73;;;23.60;99.90;;;;;;5061735;28;20064;-51
2023/12/05 00:50:25;;;;;;;38.53;26.23;;;23.60;99.90;;;;;;5064262;28;20036;-53
2023/12/05 00:52:51;;;;;;;42.13;29.60;;;23.60;99.90;;;;;;5067532;28;20438;-52
2023/12/05 00:55:16;;;;;;;40.67;28.43;;;23.60;99.90;;;;;;5058828;28;20495;-52
2023/12/05 00:57:42;;;;;;;43.33;28.73;;;23.70;99.90;;;;;;5060813;28;20054;-55
2023/12/05 01:00:11;;;;;;;49.73;30.80;;;23.70;99.90;;;;;;5058759;28;20611;-56
2023/12/05 01:02:37;;;;;;;40.73;27.30;;;23.60;99.90;;;;;;5067517;28;20028;-56
2023/12/05 01:05:02;;;;;;;40.60;28.23;;;23.60;99.90;;;;;;5068050;28;20126;-52
2023/12/05 01:07:28;;;;;;;36.67;26.33;;;23.50;99.90;;;;;;5060625;28;20036;-56
2023/12/05 01:09:54;;;;;;;35.70;26.17;;;23.60;99.90;;;;;;5066688;28;20146;-55
2023/12/05 01:12:20;;;;;;;33.40;24.97;;;23.50;99.90;;;;;;5058072;28;20031;-56
2023/12/05 01:14:46;;;;;;;36.80;26.63;;;23.60;99.90;;;;;;5070049;28;20492;-55
2023/12/05 01:17:11;;;;;;;36.93;27.00;;;23.60;99.90;;;;;;5063338;28;20115;-55
2023/12/05 01:19:38;;;;;;;40.63;26.83;;;23.60;99.90;;;;;;5062857;28;20033;-56
2023/12/05 01:22:04;;;;;;;36.97;26.93;;;23.60;99.90;;;;;;5053938;28;20028;-55
2023/12/05 01:24:29;;;;;;;38.53;27.97;;;23.60;99.90;;;;;;5060847;28;20119;-55
2023/12/05 01:26:55;;;;;;;37.17;26.07;;;23.60;99.90;;;;;;5055418;28;20116;-56
2023/12/05 01:29:21;;;;;;;37.93;27.30;;;23.50;99.90;;;;;;5058999;28;20394;-55
2023/12/05 01:31:46;;;;;;;37.13;26.50;;;23.50;99.90;;;;;;5054906;28;20021;-54
2023/12/05 01:34:12;;;;;;;38.30;27.60;;;23.60;99.90;;;;;;5072244;28;20032;-55
2023/12/05 01:36:38;;;;;;;39.23;27.00;;;23.40;99.90;;;;;;5054102;28;20052;-53
2023/12/05 01:39:03;;;;;;;38.77;27.03;;;23.50;99.90;;;;;;5067345;28;20025;-55
2023/12/05 01:41:29;;;;;;;37.33;27.63;;;23.60;99.90;;;;;;5060260;28;20377;-55
2023/12/05 01:43:54;;;;;;;36.70;27.67;;;23.60;99.90;;;;;;5063648;28;20063;-53
2023/12/05 01:46:20;;;;;;;33.47;24.73;;;23.40;99.90;;;;;;5058215;28;20040;-54
2023/12/05 01:48:47;;;;;;;33.43;25.33;;;23.60;99.90;;;;;;5054923;28;20025;-55
2023/12/05 01:51:14;;;;;;;38.17;26.10;;;23.60;99.90;;;;;;5057675;28;20044;-55
2023/12/05 01:53:42;;;;;;;37.77;26.70;;;23.60;99.90;;;;;;5065378;28;20470;-54
2023/12/05 01:56:10;;;;;;;39.47;28.23;;;23.60;99.90;;;;;;5059848;28;20389;-53
2023/12/05 01:58:37;;;;;;;39.13;28.70;;;23.60;99.90;;;;;;5064664;28;20122;-54
2023/12/05 02:01:04;;;;;;;40.90;28.83;;;23.50;99.90;;;;;;5066408;28;20044;-52
2023/12/05 02:03:34;;;;;;;43.77;30.40;;;23.50;99.90;;;;;;5060152;28;20055;-52
2023/12/05 02:06:00;;;;;;;41.00;29.53;;;23.60;99.90;;;;;;5066136;28;20041;-52
2023/12/05 02:08:29;;;;;;;39.40;27.73;;;23.60;99.90;;;;;;5068423;28;20016;-54
2023/12/05 02:10:55;;;;;;;39.30;28.57;;;23.60;99.90;;;;;;5062846;28;20033;-52
2023/12/05 02:13:21;;;;;;;39.13;27.87;;;23.60;99.90;;;;;;5067540;28;20031;-53
2023/12/05 02:15:51;;;;;;;41.10;28.87;;;23.50;99.90;;;;;;5068033;28;20039;-52
2023/12/05 02:18:22;;;;;;;41.90;29.27;;;23.60;99.90;;;;;;5073750;28;20119;-51
2023/12/05 02:21:15;;;;;;;43.40;30.40;;;23.50;99.90;;;;;;5071628;28;20457;-53
2023/12/05 02:23:59;;;;;;;42.10;29.70;;;23.60;99.90;;;;;;5075397;28;20412;-51
2023/12/05 02:26:48;;;;;;;42.80;31.00;;;23.60;99.90;;;;;;5072910;28;20036;-54
2023/12/05 02:29:14;;;;;;;46.63;31.60;;;23.40;99.90;;;;;;5062424;28;20037;-51
2023/12/05 02:31:39;;;;;;;43.40;29.87;;;23.40;99.90;;;;;;5067865;28;20032;-52
2023/12/05 02:34:05;;;;;;;41.53;29.73;;;23.40;99.90;;;;;;5075317;28;20486;-54
2023/12/05 02:36:49;;;;;;;41.63;28.87;;;23.40;99.90;;;;;;5070073;28;20123;-52
2023/12/05 02:39:27;;;;;;;41.97;28.50;;;23.40;99.90;;;;;;5073416;28;20028;-54
2023/12/05 02:41:55;;;;;;;39.30;28.80;;;23.40;99.90;;;;;;5064679;28;20042;-53
2023/12/05 02:44:25;;;;;;;36.50;26.80;;;23.40;99.90;;;;;;5074224;28;20071;-56
2023/12/05 02:46:52;;;;;;;37.03;28.27;;;23.30;99.90;;;;;;5071390;28;20492;-52
2023/12/05 02:49:18;;;;;;;37.73;26.83;;;23.40;99.90;;;;;;5070644;28;20020;-52
2023/12/05 02:51:45;;;;;;;35.23;25.67;;;23.40;99.90;;;;;;5064754;28;20032;-52
2023/12/05 02:54:10;;;;;;;37.03;25.63;;;23.40;99.90;;;;;;5072816;28;20017;-51
2023/12/05 02:56:36;;;;;;;35.57;25.73;;;23.40;99.90;;;;;;5063611;28;20170;-55
2023/12/05 02:59:02;;;;;;;33.00;25.00;;;23.40;99.90;;;;;;5067858;28;20057;-51
2023/12/05 03:01:28;;;;;;;36.33;25.53;;;23.50;99.90;;;;;;5061785;28;20052;-51
2023/12/05 03:03:54;;;;;;;32.93;24.63;;;23.40;99.90;;;;;;5068038;28;20371;-54
2023/12/05 03:06:19;;;;;;;36.40;25.03;;;23.40;99.90;;;;;;5074878;28;20041;-53
2023/12/05 03:08:45;;;;;;;34.53;24.87;;;23.40;99.90;;;;;;5072698;28;20078;-53
2023/12/05 03:11:11;;;;;;;35.80;24.90;;;23.40;99.90;;;;;;5067688;28;20029;-51
2023/12/05 03:13:40;;;;;;;33.37;24.13;;;23.50;99.90;;;;;;5074373;28;20025;-53
2023/12/05 03:16:08;;;;;;;34.23;25.70;;;23.30;99.90;;;;;;5060383;28;20389;-51
2023/12/05 03:18:33;;;;;;;35.97;26.37;;;23.40;99.90;;;;;;5069302;28;20027;-51
2023/12/05 03:20:59;;;;;;;34.40;25.93;;;23.30;99.90;;;;;;5065015;28;20108;-55
2023/12/05 03:23:25;;;;;;;35.03;26.33;;;23.50;99.90;;;;;;5072161;28;20066;-51
2023/12/05 03:25:50;;;;;;;41.60;26.33;;;23.40;99.90;;;;;;5072449;28;20446;-52
2023/12/05 03:28:16;;;;;;;41.70;27.27;;;23.40;99.90;;;;;;5071146;28;20020;-51
2023/12/05 03:30:42;;;;;;;38.70;27.50;;;23.40;99.90;;;;;;5070995;28;20035;-52
2023/12/05 03:33:07;;;;;;;36.63;27.93;;;23.40;99.90;;;;;;5072515;28;20127;-51
2023/12/05 03:35:33;;;;;;;35.37;26.43;;;23.40;99.90;;;;;;5073863;28;20020;-51
2023/12/05 03:37:58;;;;;;;40.90;28.00;;;23.30;99.90;;;;;;5073962;28;20081;-51
2023/12/05 03:40:24;;;;;;;39.97;27.40;;;23.40;99.90;;;;;;5058565;28;20028;-54
2023/12/05 03:42:49;;;;;;;40.53;27.57;;;23.40;99.90;;;;;;5068860;28;20039;-52
2023/12/05 03:45:15;;;;;;;39.07;26.67;;;23.40;99.90;;;;;;5073804;28;20065;-53
2023/12/05 03:47:41;;;;;;;40.27;27.47;;;23.30;99.90;;;;;;5069123;28;20504;-55
2023/12/05 03:50:07;;;;;;;39.27;27.53;;;23.30;99.90;;;;;;5071974;28;20050;-51
2023/12/05 03:52:32;;;;;;;39.13;27.87;;;23.30;99.90;;;;;;5070362;28;20116;-52
2023/12/05 03:54:58;;;;;;;37.90;27.43;;;23.40;99.90;;;;;;5071301;28;20119;-52
2023/12/05 03:57:23;;;;;;;43.33;28.33;;;23.40;99.90;;;;;;5072024;28;20035;-54
2023/12/05 03:59:49;;;;;;;43.67;28.80;;;23.40;99.90;;;;;;5059109;28;20021;-54
2023/12/05 04:02:15;;;;;;;38.57;27.17;;;23.40;99.90;;;;;;5068726;28;20366;-52
2023/12/05 04:04:40;;;;;;;41.67;28.70;;;23.40;99.90;;;;;;5068058;28;20033;-55
2023/12/05 04:07:06;;;;;;;40.77;28.57;;;23.40;99.90;;;;;;5069562;28;20033;-51
2023/12/05 04:09:32;;;;;;;40.40;27.73;;;23.40;99.90;;;;;;5060105;28;20024;-55
2023/12/05 04:11:58;;;;;;;39.93;27.80;;;23.50;99.90;;;;;;5061366;28;20444;-52
2023/12/05 04:14:24;;;;;;;40.73;28.03;;;23.40;99.90;;;;;;5057230;28;20071;-52
2023/12/05 04:16:50;;;;;;;42.37;29.50;;;23.50;99.90;;;;;;5073067;28;20024;-54
2023/12/05 04:19:15;;;;;;;43.03;30.10;;;23.50;99.90;;;;;;5069698;28;20025;-52
2023/12/05 04:21:41;;;;;;;41.77;29.77;;;23.40;99.90;;;;;;5061497;28;20028;-50
2023/12/05 04:24:07;;;;;;;42.07;29.00;;;23.40;99.90;;;;;;5069088;28;20454;-54
2023/12/05 04:26:32;;;;;;;42.73;28.87;;;23.40;99.90;;;;;;5062643;28;20071;-53
2023/12/05 04:28:58;;;;;;;46.03;30.00;;;23.50;99.90;;;;;;5064279;28;20053;-51
2023/12/05 04:31:27;;;;;;;38.83;28.23;;;23.50;99.90;;;;;;5061363;28;20088;-54
2023/12/05 04:33:53;;;;;;;43.83;29.37;;;23.50;99.90;;;;;;5071740;28;20024;-54
2023/12/05 04:36:18;;;;;;;42.00;28.57;;;23.50;99.90;;;;;;5069310;28;20025;-55
2023/12/05 04:38:44;;;;;;;38.70;28.07;;;23.50;99.90;;;;;;5061521;28;20111;-54
2023/12/05 04:41:10;;;;;;;42.50;28.17;;;23.40;99.90;;;;;;5068308;28;20359;-54
2023/12/05 04:43:36;;;;;;;40.27;28.20;;;23.50;99.90;;;;;;5070458;28;20037;-56
2023/12/05 04:46:01;;;;;;;41.90;29.23;;;23.40;99.90;;;;;;5072690;28;20119;-55
2023/12/05 04:48:27;;;;;;;42.60;29.30;;;23.40;99.90;;;;;;5070443;28;20029;-54
2023/12/05 04:50:53;;;;;;;42.27;29.67;;;23.50;99.90;;;;;;5064075;28;20091;-55
2023/12/05 04:53:19;;;;;;;39.70;28.97;;;23.50;99.90;;;;;;5063529;28;20433;-54
2023/12/05 04:55:44;;;;;;;39.87;28.97;;;23.50;99.90;;;;;;5062391;28;20066;-54
2023/12/05 04:58:10;;;;;;;39.57;27.00;;;23.40;99.90;;;;;;5070655;28;20028;-54
2023/12/05 05:00:36;;;;;;;39.87;28.77;;;23.30;99.90;;;;;;5064194;28;20453;-56
2023/12/05 05:03:02;;;;;;;42.83;29.07;;;23.40;99.90;;;;;;5060385;28;20036;-55
2023/12/05 05:05:27;;;;;;;42.73;29.80;;;23.40;99.90;;;;;;5064821;28;20081;-55
2023/12/05 05:07:53;;;;;;;39.93;27.17;;;23.50;99.90;;;;;;5071081;28;20078;-52
2023/12/05 05:10:19;;;;;;;38.33;27.60;;;23.50;99.90;;;;;;5068112;28;20381;-55
2023/12/05 05:12:44;;;;;;;40.27;27.27;;;23.50;99.90;;;;;;5064981;28;20523;-54
2023/12/05 05:15:10;;;;;;;44.50;30.30;;;23.40;99.90;;;;;;5071101;28;20104;-52
2023/12/05 05:17:36;;;;;;;38.93;27.13;;;23.50;99.90;;;;;;5066582;28;20025;-54
2023/12/05 05:20:01;;;;;;;38.93;27.50;;;23.40;99.90;;;;;;5061328;28;20033;-52
2023/12/05 05:22:27;;;;;;;42.50;28.77;;;23.50;99.90;;;;;;5056465;28;20113;-53
2023/12/05 05:24:53;;;;;;;39.30;28.07;;;23.40;99.90;;;;;;5066862;28;20036;-54
2023/12/05 05:27:18;;;;;;;43.80;28.37;;;23.60;99.90;;;;;;5064640;28;20528;-53
2023/12/05 05:29:44;;;;;;;41.13;27.73;;;23.40;99.90;;;;;;5066039;28;20029;-54
2023/12/05 05:32:09;;;;;;;41.93;28.47;;;23.40;99.90;;;;;;5056572;28;20024;-53
2023/12/05 05:34:35;;;;;;;42.13;27.23;;;23.50;99.90;;;;;;5072125;28;20024;-52
2023/12/05 05:37:01;;;;;;;40.27;27.03;;;23.50;99.90;;;;;;5069846;28;20078;-53
2023/12/05 05:39:26;;;;;;;44.30;29.67;;;23.60;99.90;;;;;;5068127;28;20036;-55
2023/12/05 05:41:52;;;;;;;38.93;28.57;;;23.60;99.90;;;;;;5070012;28;20478;-53
2023/12/05 05:44:18;;;;;;;42.70;28.30;;;23.50;99.90;;;;;;5067352;28;20049;-52
2023/12/05 05:46:44;;;;;;;39.03;27.87;;;23.50;99.90;;;;;;5058163;28;20055;-51
2023/12/05 05:49:09;;;;;;;41.30;29.40;;;23.40;99.90;;;;;;5070684;28;20537;-55
2023/12/05 05:51:35;;;;;;;42.93;27.93;;;23.50;99.90;;;;;;5066981;28;20108;-55
2023/12/05 05:54:01;;;;;;;42.23;28.53;;;23.60;99.90;;;;;;5072923;28;20411;-61
2023/12/05 05:56:26;;;;;;;46.43;30.50;;;23.50;99.90;;;;;;5070791;28;20020;-61
2023/12/05 05:58:52;;;;;;;40.37;29.17;;;23.60;99.90;;;;;;5072824;28;20111;-69
2023/12/05 06:01:17;;;;;;;40.07;28.57;;;23.60;99.90;;;;;;5063393;28;20431;-71
2023/12/05 06:03:44;;;;;;;43.40;28.40;;;23.60;99.90;;;;;;5061054;28;20268;-70
2023/12/05 06:06:09;;;;;;;42.47;28.13;;;23.60;99.90;;;;;;5062339;28;20035;-70
2023/12/05 06:08:35;;;;;;;49.00;30.93;;;23.60;99.90;;;;;;5074917;28;20028;-68
2023/12/05 06:11:01;;;;;;;39.73;27.60;;;23.60;99.90;;;;;;5067211;28;20024;-61
2023/12/05 06:13:26;;;;;;;42.67;29.40;;;23.50;99.90;;;;;;5075367;28;20081;-63
2023/12/05 06:15:52;;;;;;;46.13;30.23;;;23.50;99.90;;;;;;5069286;28;20032;-65
2023/12/05 06:18:18;;;;;;;42.07;28.63;;;23.50;99.90;;;;;;5068599;28;20028;-64
2023/12/05 06:20:44;;;;;;;42.03;28.37;;;23.50;99.90;;;;;;5068790;28;20175;-64
2023/12/05 06:23:10;;;;;;;44.70;30.57;;;23.50;99.90;;;;;;5066625;28;20029;-61
2023/12/05 06:25:35;;;;;;;42.83;29.60;;;23.40;99.90;;;;;;5067017;28;20037;-59
2023/12/05 06:28:01;;;;;;;40.03;28.30;;;23.40;99.90;;;;;;5064715;28;20047;-60
2023/12/05 06:30:27;;;;;;;41.90;29.00;;;23.30;99.90;;;;;;5070867;28;20359;-61
2023/12/05 06:32:52;;;;;;;42.20;28.83;;;23.40;99.90;;;;;;5061682;28;20541;-56
2023/12/05 06:35:18;;;;;;;42.20;27.87;;;23.50;99.90;;;;;;5062885;28;20035;-60
2023/12/05 06:37:44;;;;;;;37.47;27.50;;;23.60;99.90;;;;;;5064919;28;20035;-61
2023/12/05 06:40:10;;;;;;;44.47;28.17;;;23.50;99.90;;;;;;5063085;28;20051;-61
2023/12/05 06:42:37;;;;;;;36.97;26.33;;;23.50;99.90;;;;;;5066469;28;20024;-60
2023/12/05 06:45:03;;;;;;;42.63;28.17;;;23.60;99.90;;;;;;5065529;28;20089;-60
2023/12/05 06:47:30;;;;;;;42.43;28.03;;;23.50;99.90;;;;;;5061010;28;20039;-60
2023/12/05 06:49:59;;;;;;;38.47;26.97;;;23.60;99.90;;;;;;5058402;28;20024;-61
2023/12/05 06:52:25;;;;;;;40.17;27.87;;;23.50;99.90;;;;;;5066822;28;20021;-60
2023/12/05 06:54:51;;;;;;;38.37;28.23;;;23.50;99.90;;;;;;5067028;28;20025;-60
2023/12/05 06:57:17;;;;;;;37.00;26.73;;;23.60;99.90;;;;;;5070702;28;20179;-61
2023/12/05 06:59:42;;;;;;;39.63;28.07;;;23.60;99.90;;;;;;5071345;28;20031;-61
2023/12/05 07:02:08;;;;;;;35.47;25.87;;;23.60;99.90;;;;;;5067593;28;20430;-62
2023/12/05 07:04:34;;;;;;;36.17;25.43;;;23.40;99.90;;;;;;5068788;28;20012;-62
2023/12/05 07:06:59;;;;;;;40.80;27.60;;;23.40;99.90;;;;;;5063161;28;20040;-58
2023/12/05 07:09:25;;;;;;;38.77;27.03;;;23.40;99.90;;;;;;5067108;28;20495;-58
2023/12/05 07:11:51;;;;;;;38.03;26.93;;;23.40;99.90;;;;;;5074338;28;20028;-58
2023/12/05 07:14:17;;;;;;;39.33;25.63;;;23.50;99.90;;;;;;5078898;28;20055;-60
2023/12/05 07:16:42;;;;;;;37.23;27.30;;;23.40;99.90;;;;;;5063244;28;20025;-59
2023/12/05 07:19:08;;;;;;;33.60;25.07;;;23.40;99.90;;;;;;5066882;28;20047;-59
2023/12/05 07:21:33;;;;;;;38.30;26.53;;;23.50;99.90;;;;;;5063935;28;20028;-60
2023/12/05 07:23:59;;;;;;;36.97;26.07;;;23.60;99.90;;;;;;5071290;28;20020;-66
2023/12/05 07:26:24;;;;;;;34.03;24.57;;;23.60;99.90;;;;;;5061618;28;20067;-53
2023/12/05 07:28:50;;;;;;;32.23;23.93;;;23.50;99.90;;;;;;5066457;28;20425;-60
2023/12/05 07:31:17;;;;;;;35.73;24.90;;;23.50;99.90;;;;;;5064527;28;20036;-54
2023/12/05 07:33:43;;;;;;;33.53;24.43;;;23.60;99.90;;;;;;5068395;28;20477;-54
2023/12/05 07:36:09;;;;;;;36.43;25.50;;;23.60;99.90;;;;;;5062246;28;20024;-53
2023/12/05 07:38:35;;;;;;;36.20;25.60;;;23.40;99.90;;;;;;5060131;28;20024;-54
2023/12/05 07:41:00;;;;;;;33.70;25.43;;;23.50;99.90;;;;;;5072149;28;20028;-52
2023/12/05 07:43:26;;;;;;;38.53;24.73;;;23.60;99.90;;;;;;5071539;28;20044;-53
2023/12/05 07:45:51;;;;;;;36.17;26.33;;;23.50;99.90;;;;;;5060228;28;20106;-51
2023/12/05 07:48:17;;;;;;;36.90;25.53;;;23.60;99.90;;;;;;5066587;28;20051;-53
2023/12/05 07:50:43;;;;;;;34.37;25.03;;;23.40;99.90;;;;;;5063573;28;20024;-52
2023/12/05 07:53:09;;;;;;;33.43;23.73;;;23.40;99.90;;;;;;5061122;28;20028;-52
2023/12/05 07:55:35;;;;;;;32.53;22.60;;;23.40;99.90;;;;;;5068199;28;20025;-54
2023/12/05 07:58:00;;;;;;;34.20;23.17;;;23.50;99.90;;;;;;5064543;28;20028;-54
2023/12/05 08:00:26;;;;;;;30.00;23.73;;;23.40;99.90;;;;;;5071149;28;20103;-52
2023/12/05 08:02:51;;;;;;;37.97;27.80;;;23.50;99.90;;;;;;5066523;28;20486;-50
2023/12/05 08:05:17;;;;;;;38.47;26.27;;;23.30;99.90;;;;;;5058254;28;20025;-54
2023/12/05 08:07:42;;;;;;;39.20;28.20;;;23.40;99.90;;;;;;5062949;28;20120;-53
2023/12/05 08:10:10;;;;;;;37.20;27.87;;;23.50;99.90;;;;;;5060684;28;20100;-54
2023/12/05 08:12:36;;;;;;;40.90;29.23;;;23.50;99.90;;;;;;5070792;28;20028;-53
2023/12/05 08:15:03;;;;;;;44.40;30.17;;;23.60;99.90;;;;;;5068694;28;20119;-54
2023/12/05 08:17:29;;;;;;;47.83;32.63;;;23.60;99.90;;;;;;5063655;28;20025;-52
2023/12/05 08:19:54;;;;;;;41.77;28.93;;;23.70;99.90;;;;;;5070699;28;20033;-52
2023/12/05 08:22:21;;;;;;;43.87;30.17;;;23.60;99.90;;;;;;5062170;28;20418;-54
2023/12/05 08:24:47;;;;;;;41.50;29.03;;;23.60;99.90;;;;;;5059646;28;20067;-52
2023/12/05 08:27:13;;;;;;;40.67;28.83;;;23.60;99.90;;;;;;5068255;28;20114;-51
2023/12/05 08:29:39;;;;;;;37.03;28.30;;;23.70;99.90;;;;;;5064486;28;20017;-50
2023/12/05 08:32:07;;;;;;;42.43;29.27;;;23.70;99.90;;;;;;5061913;28;20085;-52
2023/12/05 08:34:33;;;;;;;38.70;28.27;;;23.70;99.90;;;;;;5067406;28;20135;-54
2023/12/05 08:36:59;;;;;;;38.23;26.43;;;23.70;99.90;;;;;;5070355;28;20074;-51
2023/12/05 08:39:24;;;;;;;39.23;28.83;;;23.80;99.90;;;;;;5064947;28;20032;-53
2023/12/05 08:41:51;;;;;;;37.83;27.13;;;23.70;99.90;;;;;;5062626;28;20503;-53
2023/12/05 08:44:17;;;;;;;38.23;27.93;;;23.70;99.90;;;;;;5062167;28;20055;-52
2023/12/05 08:46:42;;;;;;;38.70;27.77;;;23.60;99.90;;;;;;5061792;28;20406;-50
2023/12/05 08:49:08;;;;;;;35.00;25.77;;;23.60;99.90;;;;;;5057143;28;20113;-56
2023/12/05 08:51:33;;;;;;;32.80;25.53;;;23.70;99.90;;;;;;5062926;28;20473;-55
2023/12/05 08:53:59;;;;;;;35.83;25.10;;;23.80;99.90;;;;;;5067438;28;20078;-51
2023/12/05 08:56:26;;;;;;;34.47;24.70;;;;;;;;;;5066450;28;20036;-54
2023/12/05 08:58:52;;;;;;;32.40;24.90;;;;;;;;;;5063590;28;20041;-53
2023/12/05 09:01:18;;;;;;;33.17;25.43;;;;;;;;;;5061839;28;20119;-53
2023/12/05 09:03:44;;;;;;;31.00;24.73;;;;;;;;;;5057216;28;20441;-54
2023/12/05 09:06:10;;;;;;;38.50;26.17;;;;;;;;;;5063886;28;20032;-52
2023/12/05 09:08:36;;;;;;;36.33;24.93;;;;;;;;;;5058287;28;20124;-52
2023/12/05 09:11:02;;;;;;;36.53;26.23;;;;;;;;;;5071464;28;20104;-50
2023/12/05 09:13:28;;;;;;;33.73;25.03;;;;;;;;;;5061419;28;20393;-51
2023/12/05 09:15:54;;;;;;;32.03;24.23;;;;;;;;;;5060988;28;20029;-52
2023/12/05 09:18:20;;;;;;;33.60;24.93;;;;;;;;;;5065422;28;20561;-50
2023/12/05 09:20:46;;;;;;;34.13;25.70;;;;;;;;;;5068715;28;20032;-52
2023/12/05 09:23:12;;;;;;;36.13;27.03;;;;;;;;;;5055389;28;20021;-52
2023/12/05 09:25:39;;;;;;;36.47;27.57;;;;;;;;;;5067126;28;20024;-53
2023/12/05 09:28:05;;;;;;;32.93;24.93;;;;;;;;;;5061625;28;20167;-52
2023/12/05 09:30:31;;;;;;;34.50;25.13;;;;;;;;;;5068649;28;20116;-52
2023/12/05 09:32:57;;;;;;;31.03;24.27;;;;;;;;;;5071923;28;20028;-55
2023/12/05 09:35:23;;;;;;;34.33;26.27;;;;;;;;;;5063630;28;20017;-51
2023/12/05 09:37:49;;;;;;;31.50;24.10;;;;;;;;;;5068704;28;20029;-51
2023/12/05 09:40:15;;;;;;;36.00;25.40;;;;;;;;;;5060777;28;20029;-54
2023/12/05 09:42:46;;;;;;;33.87;25.50;;;;;;;;;;5059732;28;20033;-54
2023/12/05 09:45:14;;;;;;;33.87;24.67;;;;;;;;;;5067155;28;20115;-53
2023/12/05 09:47:42;;;;;;;34.93;26.10;;;;;;;;;;5069206;28;20025;-51
2023/12/05 09:50:09;;;;;;;41.07;27.33;;;;;;;;;;5069195;28;20025;-51
2023/12/05 09:52:35;;;;;;;36.27;26.20;;;;;;;;;;5069905;28;20026;-55
2023/12/05 09:55:02;;;;;;;33.23;25.83;;;;;;;;;;5072035;28;20378;-53
2023/12/05 09:57:29;;;;;;;36.37;26.63;;;;;;;;;;5064286;28;20086;-55
2023/12/05 09:59:55;;;;;;;39.23;27.77;;;;;;;;;;5063377;28;20027;-56
2023/12/05 10:02:23;;;;;;;37.70;27.47;;;;;;;;;;5066315;28;20475;-53
2023/12/05 10:04:50;;;;;;;34.83;26.33;;;;;;;;;;5062184;28;20346;-52
2023/12/05 10:07:16;;;;;;;38.13;26.83;;;;;;;;;;5068914;28;20044;-54
2023/12/05 10:09:43;;;;;;;36.23;26.10;;;;;;;;;;5069043;28;20103;-51
2023/12/05 10:12:10;;;;;;;29.30;23.40;;;;;;;;;;5075496;28;20032;-52
2023/12/05 10:14:37;;;;;;;33.67;24.67;;;;;;;;;;5064717;28;20021;-54
2023/12/05 10:17:03;;;;;;;36.27;26.70;;;;;;;;;;5063807;28;20028;-52
2023/12/05 10:19:32;;;;;;;37.67;27.83;;;;;;;;;;5067768;28;20129;-54
2023/12/05 10:21:59;;;;;;;35.60;25.13;;;;;;;;;;5068673;28;20174;-53
2023/12/05 10:24:38;;;;;;;35.60;25.77;;;;;;;;;;5060441;28;20021;-53
2023/12/05 10:27:04;;;;;;;33.63;23.60;;;;;;;;;;5060605;28;20040;-55
2023/12/05 10:29:38;;;;;;;35.13;24.30;;;;;;;;;;5062924;28;20114;-54
2023/12/05 10:32:04;;;;;;;34.95;25.40;;;;;;;;;;5072014;28;21492;-55
2023/12/05 10:34:30;;;;;;;34.97;25.50;;;;;;;;;;5067691;28;20385;-56
2023/12/05 10:37:05;;;;;;;37.43;25.27;;;;;;;;;;5070562;28;20031;-55
2023/12/05 10:39:37;;;;;;;34.83;24.20;;;;;;;;;;5060881;28;20072;-58
2023/12/05 10:42:03;;;;;;;32.47;23.70;;;;;;;;;;5069914;28;20024;-57
2023/12/05 10:44:36;;;;;;;36.67;25.23;;;;;;;;;;5069176;28;20064;-58
2023/12/05 10:47:02;;;;;;;39.17;27.03;;;;;;;;;;5062012;28;20040;-59
2023/12/05 10:49:28;;;;;;;35.73;24.57;;;;;;;;;;5056104;28;20383;-59
2023/12/05 10:51:55;;;;;;;36.37;25.20;;;;;;;;;;5085319;28;20397;-59
2023/12/05 10:54:21;;;;;;;34.07;24.20;;;;;;;;;;5064582;28;20020;-60
2023/12/05 10:57:00;;;;;;;31.70;23.27;;;;;;;;;;5071039;28;20104;-59
2023/12/05 10:59:27;;;;;;;32.27;22.30;;;;;;;;;;5068492;28;20115;-59
2023/12/05 11:01:55;;;;;;;32.77;23.03;;;;;;;;;;5061974;28;20032;-56
2023/12/05 11:04:21;;;;;;;29.57;22.73;;;;;;;;;;5061002;28;20481;-58
2023/12/05 11:06:47;;;;;;;31.63;21.17;;;;;;;;;;5062004;28;20044;-57
2023/12/05 11:09:13;;;;;;;30.53;21.77;;;;;;;;;;5063385;28;20021;-54
2023/12/05 11:11:40;;;;;;;27.80;21.33;;;;;;;;;;5069289;28;20029;-56
2023/12/05 11:14:10;;;;;;;31.80;22.03;;;;;;;;;;5069720;28;20089;-54
2023/12/05 11:16:37;;;;;;;30.70;22.30;;;;;;;;;;5065727;28;20056;-54
2023/12/05 11:19:18;;;;;;;28.67;21.80;;;;;;;;;;5059297;28;20031;-55
2023/12/05 11:21:54;;;;;;;32.37;22.33;;;;;;;;;;5065548;28;20047;-54
2023/12/05 11:24:37;;;;;;;32.60;21.57;;;;;;;;;;5064957;28;20426;-57
2023/12/05 11:27:19;;;;;;;29.77;22.10;;;;;;;;;;5064565;28;20044;-56
2023/12/05 11:29:45;;;;;;;29.70;21.27;;;;;;;;;;5058440;28;20067;-57
2023/12/05 11:32:13;;;;;;;33.27;22.47;;;;;;;;;;5065189;28;20150;-56
2023/12/05 11:34:42;;;;;;;29.17;20.97;;;;;;;;;;5075559;28;20375;-57
2023/12/05 11:37:13;;;;;;;30.03;21.27;;;;;;;;;;5058564;28;20055;-54
2023/12/05 11:39:40;;;;;;;28.93;21.60;;;;;;;;;;5061809;28;20021;-56
2023/12/05 11:42:09;;;;;;;32.17;22.73;;;;;;;;;;5060662;28;20040;-58
2023/12/05 11:44:36;;;;;;;30.20;22.10;;;;;;;;;;5066623;28;20094;-58
2023/12/05 11:47:06;;;;;;;32.80;23.73;;;;;;;;;;5062458;28;20567;-51
2023/12/05 11:49:39;;;;;;;30.87;20.73;;;;;;;;;;5072920;28;20051;-53
2023/12/05 11:52:09;;;;;;;30.43;21.57;;;;;;;;;;5073845;28;20028;-51
2023/12/05 11:54:36;;;;;;;35.30;24.23;;;;;;;;;;5071585;28;20488;-49
2023/12/05 11:57:12;;;;;;;33.37;23.10;;;;;;;;;;5072194;28;20029;-49
2023/12/05 11:59:40;;;;;;;36.43;25.07;;;;;;;;;;5069540;28;20031;-48
2023/12/05 12:02:06;;;;;;;32.47;22.87;;;;;;;;;;5060043;28;20485;-48
2023/12/05 12:04:32;;;;;;;35.50;26.00;;;;;;;;;;5057793;28;20567;-47
2023/12/05 12:06:59;;;;;;;33.23;23.23;;;;;;;;;;5073256;28;20119;-48
2023/12/05 12:09:25;;;;;;;39.73;25.53;;;;;;;;;;5073272;28;20013;-48
2023/12/05 12:11:51;;;;;;;34.53;24.27;;;;;;;;;;5072957;28;20554;-51
2023/12/05 12:14:19;;;;;;;41.00;26.97;;;;;;;;;;5072873;28;20070;-46
2023/12/05 12:16:46;;;;;;;38.37;26.30;;;;;;;;;;5073234;28;20126;-47
2023/12/05 12:19:14;;;;;;;39.50;25.57;;;;;;;;;;5072834;28;20569;-47
2023/12/05 12:21:40;;;;;;;39.40;25.63;;;;;;;;;;5073159;28;20115;-47
2023/12/05 12:24:07;;;;;;;33.67;23.73;;;;;;;;;;5072865;28;20028;-48
2023/12/05 12:26:33;;;;;;;31.87;22.40;;;;;;;;;;5072545;28;20428;-49
2023/12/05 12:29:09;;;;;;;35.27;24.57;;;;;;;;;;5072694;28;20025;-49
2023/12/05 12:31:38;;;;;;;39.03;25.90;;;;;;;;;;5072614;28;20493;-48
2023/12/05 12:34:07;;;;;;;41.87;26.20;;;;;;;;;;5072728;28;20039;-48
2023/12/05 12:36:34;;;;;;;40.23;26.63;;;;;;;;;;5072656;28;20374;-49
2023/12/05 12:39:00;;;;;;;38.93;26.40;;;;;;;;;;5072551;28;20021;-47
2023/12/05 12:41:26;;;;;;;34.87;24.03;;;;;;;;;;5068491;28;20050;-48
2023/12/05 12:43:53;;;;;;;39.80;26.43;;;;;;;;;;5072223;28;20063;-48
2023/12/05 12:46:19;;;;;;;35.83;26.03;;;;;;;;;;5072483;28;20055;-48
2023/12/05 12:48:45;;;;;;;40.33;25.83;;;;;;;;;;5072683;28;20031;-49
2023/12/05 12:51:12;;;;;;;36.13;25.27;;;;;;;;;;5072637;28;20086;-47
2023/12/05 12:53:38;;;;;;;38.60;25.67;;;;;;;;;;5072414;28;20021;-47
2023/12/05 12:56:06;;;;;;;38.27;26.13;;;;;;;;;;5070938;28;20176;-47